Time;durP1;ratioP1;P1;durP2;ratioP2;P2;SDS_P1;SDS_P2;PMS_P1;PMS_P2;Temp;Humidity;BMP_temperature;BMP_pressure;BME280_temperature;BME280_humidity;BME280_pressure;Samples;Min_cycle;Max_cycle;Signal;HPM_P1;HPM_P2
2021/12/24 00:01:44;;;;;;;17.30;10.60;;;8.90;99.90;;;;;;5035164;28;20429;-75
2021/12/24 00:04:10;;;;;;;18.00;10.40;;;8.90;99.90;;;;;;5034139;28;20811;-76
2021/12/24 00:06:36;;;;;;;17.00;9.70;;;8.90;99.90;;;;;;5035710;28;20446;-75
2021/12/24 00:09:04;;;;;;;20.10;11.07;;;8.90;99.90;;;;;;5033772;28;20799;-74
2021/12/24 00:11:30;;;;;;;21.80;10.83;;;8.90;99.90;;;;;;5036201;28;20463;-76
2021/12/24 00:13:56;;;;;;;20.63;11.53;;;8.90;99.90;;;;;;5036028;28;20402;-73
2021/12/24 00:16:32;;;;;;;21.27;11.17;;;8.90;99.90;;;;;;5033965;28;20896;-74
2021/12/24 00:19:12;;;;;;;18.43;12.20;;;8.90;99.90;;;;;;5019660;28;20415;-75
2021/12/24 00:35:30;;;;;;;19.03;10.50;;;8.80;99.90;;;;;;5037070;28;20433;-77
2021/12/24 00:38:01;;;;;;;18.63;11.37;;;8.80;99.90;;;;;;5040703;28;20854;-76
2021/12/24 00:40:27;;;;;;;14.17;10.00;;;8.80;99.90;;;;;;5036555;28;20474;-75
2021/12/24 00:42:58;;;;;;;16.63;10.33;;;8.80;99.90;;;;;;5036683;28;20516;-74
2021/12/24 00:45:27;;;;;;;35.50;18.73;;;8.80;99.90;;;;;;5032469;28;20432;-74
2021/12/24 00:47:53;;;;;;;17.33;9.67;;;8.80;99.90;;;;;;5033876;28;20515;-77
2021/12/24 00:50:24;;;;;;;23.90;11.20;;;8.80;99.90;;;;;;5034960;28;20432;-76
2021/12/24 00:52:56;;;;;;;19.90;10.53;;;8.80;99.90;;;;;;5031248;28;20414;-75
2021/12/24 00:55:27;;;;;;;18.67;10.93;;;8.80;99.90;;;;;;5036050;28;20504;-77
2021/12/24 00:57:56;;;;;;;17.40;9.60;;;8.80;99.90;;;;;;5038565;28;20556;-76
2021/12/24 01:00:26;;;;;;;13.50;9.80;;;8.80;99.90;;;;;;5050999;28;20756;-76
2021/12/24 01:02:54;;;;;;;13.70;8.57;;;8.90;99.90;;;;;;5034392;28;20441;-76
2021/12/24 01:05:23;;;;;;;15.40;9.30;;;8.90;99.90;;;;;;5034475;28;20921;-76
2021/12/24 01:07:49;;;;;;;15.60;9.40;;;8.80;99.90;;;;;;5036630;28;20457;-76
2021/12/24 01:10:18;;;;;;;14.70;8.63;;;8.80;99.90;;;;;;5036901;28;20944;-74
2021/12/24 01:12:46;;;;;;;14.70;9.27;;;8.80;99.90;;;;;;5033405;28;20425;-76
2021/12/24 01:15:14;;;;;;;12.50;9.03;;;8.80;99.90;;;;;;5033393;28;20429;-74
2021/12/24 01:20:23;;;;;;;14.13;9.73;;;8.80;99.90;;;;;;5033832;28;20763;-74
2021/12/24 01:23:24;;;;;;;14.60;8.90;;;8.80;99.90;;;;;;5050947;28;20563;-74
2021/12/24 01:28:27;;;;;;;15.63;9.30;;;8.80;99.90;;;;;;5043854;28;20501;-75
2021/12/24 01:39:23;;;;;;;11.40;8.30;;;8.90;99.90;;;;;;5031610;28;21015;-75
2021/12/24 01:44:38;;;;;;;13.27;9.20;;;8.80;99.90;;;;;;5051061;28;20432;-74
2021/12/24 01:47:08;;;;;;;11.93;7.70;;;8.80;99.90;;;;;;5050155;28;20456;-74
2021/12/24 01:49:35;;;;;;;9.27;6.93;;;8.80;99.90;;;;;;5011120;28;20803;-74
2021/12/24 01:52:03;;;;;;;11.93;7.77;;;8.90;99.90;;;;;;5011328;28;20432;-73
2021/12/24 01:54:31;;;;;;;12.27;7.73;;;8.90;99.90;;;;;;5011386;28;20887;-74
2021/12/24 01:56:57;;;;;;;9.90;6.90;;;8.90;99.90;;;;;;5034798;28;20775;-74
2021/12/24 01:59:22;;;;;;;12.00;8.40;;;8.90;99.90;;;;;;5052144;28;21012;-75
2021/12/24 02:01:54;;;;;;;17.47;8.20;;;8.90;99.90;;;;;;5043493;28;20470;-75
2021/12/24 02:04:20;;;;;;;9.00;6.50;;;8.90;99.90;;;;;;5030630;28;20190;-75
2021/12/24 02:06:47;;;;;;;10.20;6.43;;;8.90;99.90;;;;;;5030694;28;20432;-76
2021/12/24 02:09:13;;;;;;;13.47;7.50;;;8.90;99.90;;;;;;5031614;28;20479;-75
2021/12/24 02:11:40;;;;;;;15.03;7.27;;;8.90;99.90;;;;;;5030904;28;20385;-75
2021/12/24 02:14:15;;;;;;;9.90;6.80;;;8.90;99.90;;;;;;5030859;28;20417;-76
2021/12/24 02:30:27;;;;;;;11.30;7.60;;;8.90;99.90;;;;;;5034562;28;20763;-76
2021/12/24 02:32:53;;;;;;;14.20;7.03;;;8.90;99.90;;;;;;5032702;28;20548;-75
2021/12/24 02:35:20;;;;;;;13.57;7.30;;;8.90;99.90;;;;;;5034604;28;20479;-75
2021/12/24 02:37:45;;;;;;;11.30;7.00;;;8.90;99.90;;;;;;5047083;28;20431;-75
2021/12/24 02:40:11;;;;;;;11.80;7.97;;;8.90;99.90;;;;;;5054257;28;20423;-76
2021/12/24 02:42:47;;;;;;;11.80;7.20;;;8.90;99.90;;;;;;5036947;28;20178;-75
2021/12/24 02:45:12;;;;;;;10.77;7.60;;;8.90;99.90;;;;;;5037943;28;20440;-75
2021/12/24 02:47:57;;;;;;;10.80;7.00;;;8.90;99.90;;;;;;5054098;28;20459;-74
2021/12/24 02:55:34;;;;;;;15.27;8.93;;;8.90;99.90;;;;;;5037780;28;20800;-73
2021/12/24 02:58:00;;;;;;;11.13;7.40;;;8.90;99.90;;;;;;5054569;28;20412;-75
2021/12/24 03:00:27;;;;;;;12.87;7.60;;;8.90;99.90;;;;;;5037785;28;20301;-75
2021/12/24 03:02:55;;;;;;;16.23;8.03;;;8.90;99.90;;;;;;5055601;28;20404;-75
2021/12/24 03:05:24;;;;;;;11.53;7.40;;;8.90;99.90;;;;;;5052264;28;20994;-75
2021/12/24 03:07:50;;;;;;;11.80;7.47;;;8.90;99.90;;;;;;5033657;28;20511;-75
2021/12/24 03:10:18;;;;;;;12.20;7.07;;;8.90;99.90;;;;;;5036641;28;20397;-77
2021/12/24 03:12:47;;;;;;;18.27;7.63;;;8.90;99.90;;;;;;5034928;28;20398;-76
2021/12/24 03:15:15;;;;;;;11.63;7.90;;;8.90;99.90;;;;;;5036564;28;20965;-75
2021/12/24 03:17:47;;;;;;;18.67;7.90;;;8.90;99.90;;;;;;5033915;28;20405;-74
2021/12/24 03:20:13;;;;;;;12.23;8.00;;;8.90;99.90;;;;;;5017704;28;20437;-75
2021/12/24 03:25:23;;;;;;;17.70;9.10;;;8.90;99.90;;;;;;5035660;28;20447;-75
2021/12/24 03:27:49;;;;;;;14.17;7.53;;;9.00;99.90;;;;;;5033349;28;21063;-75
2021/12/24 03:30:15;;;;;;;15.40;8.00;;;9.00;99.90;;;;;;5034447;28;20444;-75
2021/12/24 03:32:41;;;;;;;11.80;7.73;;;9.00;99.90;;;;;;5034913;28;20176;-75
2021/12/24 03:35:08;;;;;;;9.63;6.77;;;9.00;99.90;;;;;;5035370;28;20298;-74
2021/12/24 03:37:33;;;;;;;14.23;8.30;;;9.00;99.90;;;;;;5053738;28;20169;-74
2021/12/24 03:40:03;;;;;;;11.50;7.70;;;9.00;99.90;;;;;;5053029;28;20423;-74
2021/12/24 03:42:30;;;;;;;19.80;9.73;;;9.00;99.90;;;;;;5053820;28;20411;-75
2021/12/24 03:45:08;;;;;;;13.70;8.77;;;9.00;99.90;;;;;;5051999;28;21185;-73
2021/12/24 03:47:38;;;;;;;19.37;8.30;;;9.00;99.90;;;;;;5030277;28;20652;-74
2021/12/24 03:50:10;;;;;;;14.83;8.47;;;8.90;99.90;;;;;;5033313;28;20949;-74
2021/12/24 03:55:02;;;;;;;12.47;8.90;;;8.90;99.90;;;;;;5032713;28;20437;-76
2021/12/24 03:57:39;;;;;;;13.93;8.27;;;8.90;99.90;;;;;;5034843;28;20194;-76
2021/12/24 04:00:24;;;;;;;9.63;6.83;;;8.90;99.90;;;;;;5036104;28;20948;-76
2021/12/24 04:03:10;;;;;;;13.80;7.40;;;8.90;99.90;;;;;;5036086;28;20421;-76
2021/12/24 04:05:58;;;;;;;17.03;9.00;;;8.90;99.90;;;;;;5024806;28;20487;-74
2021/12/24 04:08:56;;;;;;;19.50;9.77;;;8.80;99.90;;;;;;5011225;28;20463;-74
2021/12/24 04:11:40;;;;;;;11.40;7.37;;;8.80;99.90;;;;;;5032815;28;20434;-76
2021/12/24 04:14:06;;;;;;;15.87;7.77;;;8.80;99.90;;;;;;5016614;28;21136;-75
2021/12/24 04:16:33;;;;;;;13.93;8.93;;;8.80;99.90;;;;;;5032530;28;20532;-75
2021/12/24 04:19:26;;;;;;;14.97;8.70;;;8.80;99.90;;;;;;5033347;28;20170;-74
2021/12/24 04:24:52;;;;;;;10.00;7.90;;;8.80;99.90;;;;;;5052764;28;20468;-74
2021/12/24 04:27:28;;;;;;;16.20;8.63;;;8.80;99.90;;;;;;5036097;28;20448;-76
2021/12/24 04:30:07;;;;;;;20.20;9.47;;;8.80;99.90;;;;;;5032837;28;20415;-76
2021/12/24 04:51:44;;;;;;;19.23;8.00;;;8.80;99.90;;;;;;5032523;28;20958;-75
2021/12/24 05:03:27;;;;;;;16.63;8.00;;;8.80;99.90;;;;;;5033077;28;20478;-74
2021/12/24 05:05:26;;;;;;;17.07;8.63;;;8.90;99.90;;;;;;5031346;28;20444;-76
2021/12/24 05:08:14;;;;;;;14.70;8.10;;;8.90;99.90;;;;;;5032500;28;20453;-77
2021/12/24 05:10:41;;;;;;;13.07;8.27;;;8.90;99.90;;;;;;5049063;28;20409;-76
2021/12/24 05:13:11;;;;;;;11.53;7.40;;;8.90;99.90;;;;;;5016197;28;20432;-76
2021/12/24 05:16:05;;;;;;;16.67;10.00;;;8.90;99.90;;;;;;5033397;28;20413;-76
2021/12/24 05:21:37;;;;;;;11.57;8.03;;;9.00;99.90;;;;;;5013406;28;20414;-76
2021/12/24 05:24:07;;;;;;;19.80;8.80;;;9.00;99.90;;;;;;5011683;28;20413;-75
2021/12/24 05:26:35;;;;;;;15.93;8.17;;;9.00;99.90;;;;;;5017869;28;20441;-75
2021/12/24 05:29:03;;;;;;;13.63;8.40;;;9.00;99.90;;;;;;5031943;28;20548;-76
2021/12/24 05:31:30;;;;;;;15.20;8.63;;;9.00;99.90;;;;;;5048387;28;20516;-76
2021/12/24 05:33:56;;;;;;;11.33;7.30;;;9.00;99.90;;;;;;5031452;28;20417;-74
2021/12/24 05:36:22;;;;;;;17.73;8.80;;;9.00;99.90;;;;;;5032496;28;20444;-75
2021/12/24 05:38:48;;;;;;;24.33;8.93;;;9.00;99.90;;;;;;5015261;28;20833;-74
2021/12/24 05:41:14;;;;;;;16.03;9.53;;;9.00;99.90;;;;;;5032582;28;20159;-76
2021/12/24 05:43:40;;;;;;;13.80;8.00;;;9.10;99.90;;;;;;5031836;28;20548;-76
2021/12/24 05:46:06;;;;;;;22.50;9.27;;;9.10;99.90;;;;;;5040874;28;20440;-75
2021/12/24 05:48:55;;;;;;;26.37;9.23;;;9.10;99.90;;;;;;5047104;28;20483;-75
2021/12/24 05:51:24;;;;;;;13.07;8.93;;;9.10;99.90;;;;;;5046276;28;20455;-76
2021/12/24 05:53:55;;;;;;;11.70;8.63;;;9.10;99.90;;;;;;5033230;28;20429;-75
2021/12/24 05:56:22;;;;;;;15.27;8.60;;;9.10;99.90;;;;;;5016324;28;20436;-74
2021/12/24 05:58:52;;;;;;;11.43;8.27;;;9.10;99.90;;;;;;5016837;28;20496;-75
2021/12/24 06:01:18;;;;;;;15.10;8.43;;;9.10;99.90;;;;;;5031938;28;20421;-75
2021/12/24 06:03:48;;;;;;;20.10;10.03;;;9.10;99.90;;;;;;5051601;28;20424;-76
2021/12/24 06:06:13;;;;;;;15.20;9.20;;;9.10;99.90;;;;;;5050791;28;20459;-74
2021/12/24 06:08:39;;;;;;;14.30;8.00;;;9.00;99.90;;;;;;5056548;28;20452;-75
2021/12/24 06:11:05;;;;;;;13.53;8.10;;;9.00;99.90;;;;;;5055992;28;20261;-74
2021/12/24 06:13:32;;;;;;;12.50;8.27;;;9.00;99.90;;;;;;5077448;22;20593;-75
2021/12/24 06:15:57;;;;;;;15.73;8.47;;;9.00;99.90;;;;;;5052827;28;20423;-75
2021/12/24 06:20:49;;;;;;;12.50;8.50;;;9.00;99.90;;;;;;5054256;28;20177;-76
2021/12/24 06:23:18;;;;;;;17.20;8.10;;;9.00;99.90;;;;;;5068844;28;20448;-75
2021/12/24 06:25:43;;;;;;;15.27;9.87;;;9.00;99.90;;;;;;5069365;28;20476;-76
2021/12/24 06:28:09;;;;;;;21.30;8.60;;;9.00;99.90;;;;;;5073841;28;20458;-75
2021/12/24 06:30:37;;;;;;;18.30;8.90;;;9.10;99.90;;;;;;5074894;28;20211;-77
2021/12/24 06:33:03;;;;;;;14.03;8.30;;;9.10;99.90;;;;;;5076382;28;20625;-77
2021/12/24 06:35:29;;;;;;;13.07;7.27;;;9.10;99.90;;;;;;5074480;28;20441;-76
2021/12/24 06:37:58;;;;;;;13.67;8.23;;;9.10;99.90;;;;;;5036374;28;20417;-78
2021/12/24 06:40:25;;;;;;;14.60;8.70;;;9.10;99.90;;;;;;5036118;28;20425;-77
2021/12/24 06:42:51;;;;;;;14.40;8.67;;;9.10;99.90;;;;;;5036973;28;20478;-75
2021/12/24 06:45:22;;;;;;;12.40;8.17;;;9.10;99.90;;;;;;5037470;28;20412;-77
2021/12/24 06:47:48;;;;;;;16.23;10.00;;;9.10;99.90;;;;;;5042267;28;20529;-77
2021/12/24 06:50:14;;;;;;;19.73;8.67;;;9.10;99.90;;;;;;5053659;28;20412;-77
2021/12/24 06:52:40;;;;;;;17.07;7.23;;;9.10;99.90;;;;;;5053995;28;20424;-79
2021/12/24 06:55:06;;;;;;;18.40;7.60;;;9.10;99.90;;;;;;5059134;28;20227;-78
2021/12/24 06:57:35;;;;;;;12.40;7.40;;;9.00;99.90;;;;;;5074796;28;20455;-78
2021/12/24 07:00:04;;;;;;;16.40;8.17;;;9.00;99.90;;;;;;5060494;28;20494;-77
2021/12/24 07:02:29;;;;;;;18.97;8.93;;;9.00;99.90;;;;;;5053052;28;20213;-76
2021/12/24 07:04:55;;;;;;;17.77;9.03;;;9.00;99.90;;;;;;5052907;28;20908;-77
2021/12/24 07:07:21;;;;;;;14.53;8.50;;;9.10;99.90;;;;;;5053436;28;20211;-76
2021/12/24 07:09:46;;;;;;;19.83;8.73;;;9.10;99.90;;;;;;5071780;28;20263;-76
2021/12/24 07:12:14;;;;;;;21.77;7.90;;;9.10;99.90;;;;;;5066996;28;20209;-77
2021/12/24 07:14:41;;;;;;;14.70;8.10;;;9.10;99.90;;;;;;5053151;28;20588;-78
2021/12/24 07:17:10;;;;;;;22.90;9.40;;;9.10;99.90;;;;;;5057824;28;20415;-76
2021/12/24 07:19:36;;;;;;;18.37;8.27;;;9.10;99.90;;;;;;5074005;28;20542;-76
2021/12/24 07:22:02;;;;;;;25.90;8.60;;;9.10;99.90;;;;;;5066256;28;20535;-77
2021/12/24 07:24:27;;;;;;;13.03;8.33;;;9.20;99.90;;;;;;5053969;28;20842;-78
2021/12/24 07:26:53;;;;;;;17.53;8.20;;;9.20;99.90;;;;;;5052103;28;20574;-76
2021/12/24 07:29:20;;;;;;;15.60;9.37;;;9.20;99.90;;;;;;5053578;28;20174;-76
2021/12/24 07:31:46;;;;;;;18.13;8.00;;;9.20;99.90;;;;;;5054877;28;20260;-77
2021/12/24 07:34:11;;;;;;;14.33;8.00;;;9.20;99.90;;;;;;5064522;28;20466;-76
2021/12/24 07:36:37;;;;;;;12.27;8.10;;;9.20;99.90;;;;;;5071715;28;20166;-76
2021/12/24 07:39:03;;;;;;;16.33;10.17;;;9.20;99.90;;;;;;5073803;28;20250;-76
2021/12/24 07:41:31;;;;;;;15.40;8.80;;;9.20;99.90;;;;;;5066795;28;20239;-77
2021/12/24 07:43:57;;;;;;;17.67;8.57;;;9.20;99.90;;;;;;5053686;28;20503;-75
2021/12/24 07:46:30;;;;;;;12.63;8.30;;;9.20;99.90;;;;;;5051702;28;20550;-75
2021/12/24 07:49:01;;;;;;;17.10;8.93;;;9.20;99.90;;;;;;5053079;28;20294;-76
2021/12/24 07:54:11;;;;;;;17.70;9.50;;;9.10;99.90;;;;;;5052995;28;20526;-76
2021/12/24 07:56:37;;;;;;;15.20;8.40;;;9.10;99.90;;;;;;5052532;28;20988;-76
2021/12/24 07:59:03;;;;;;;23.10;10.10;;;9.10;99.90;;;;;;5052946;28;20211;-77
2021/12/24 08:01:29;;;;;;;16.97;8.93;;;9.10;99.90;;;;;;5052945;28;20166;-76
2021/12/24 08:03:56;;;;;;;25.00;9.07;;;9.10;99.90;;;;;;5051913;28;20626;-77
2021/12/24 08:06:24;;;;;;;23.40;11.50;;;9.10;99.90;;;;;;5052619;28;20172;-77
2021/12/24 08:08:50;;;;;;;16.90;9.73;;;9.10;99.90;;;;;;5052263;28;21062;-77
2021/12/24 08:11:16;;;;;;;19.40;8.40;;;9.00;99.90;;;;;;5035231;28;20432;-76
2021/12/24 08:13:42;;;;;;;26.83;11.90;;;9.00;99.90;;;;;;5053275;28;20197;-77
2021/12/24 08:16:09;;;;;;;21.27;9.33;;;9.00;99.90;;;;;;5051372;28;20476;-77
2021/12/24 08:18:36;;;;;;;30.10;10.40;;;9.00;99.90;;;;;;5053099;28;20419;-76
2021/12/24 08:21:04;;;;;;;16.07;8.03;;;9.10;99.90;;;;;;5052856;28;20427;-79
2021/12/24 08:23:29;;;;;;;15.30;7.30;;;9.10;99.90;;;;;;5053047;28;20432;-76
2021/12/24 08:25:58;;;;;;;13.87;8.23;;;9.10;99.90;;;;;;5052726;28;20966;-76
2021/12/24 08:28:26;;;;;;;19.43;8.17;;;9.10;99.90;;;;;;5051740;28;20205;-77
2021/12/24 08:30:52;;;;;;;15.57;8.13;;;9.10;99.90;;;;;;5052863;28;20420;-76
2021/12/24 08:33:17;;;;;;;14.33;7.90;;;9.10;99.90;;;;;;5051794;28;20440;-76
2021/12/24 08:35:43;;;;;;;18.80;7.90;;;9.10;99.90;;;;;;5050928;28;20416;-77
2021/12/24 08:38:09;;;;;;;16.60;8.37;;;9.10;99.90;;;;;;5052622;28;20213;-76
2021/12/24 08:40:35;;;;;;;17.13;9.73;;;9.10;99.90;;;;;;5052381;28;20228;-77
2021/12/24 08:43:01;;;;;;;14.70;9.10;;;9.10;99.90;;;;;;5051325;28;20730;-77
2021/12/24 08:45:26;;;;;;;18.97;8.27;;;9.10;99.90;;;;;;5052116;28;20177;-76
2021/12/24 08:47:52;;;;;;;17.73;8.77;;;9.20;99.90;;;;;;5053020;28;20805;-76
2021/12/24 08:50:18;;;;;;;21.80;10.33;;;9.20;99.90;;;;;;5052230;28;20530;-76
2021/12/24 08:52:45;;;;;;;22.17;9.77;;;9.20;99.90;;;;;;5051332;28;20197;-76
2021/12/24 08:55:13;;;;;;;11.97;6.77;;;9.20;99.90;;;;;;5050916;28;20172;-77
2021/12/24 08:57:41;;;;;;;19.17;7.87;;;9.20;99.90;;;;;;5058864;28;20427;-77
2021/12/24 09:00:09;;;;;;;18.27;8.97;;;9.20;99.90;;;;;;5040792;28;20454;-77
2021/12/24 09:02:36;;;;;;;14.20;6.30;;;9.20;99.90;;;;;;5052171;28;20475;-76
2021/12/24 09:05:07;;;;;;;18.43;7.10;;;9.20;99.90;;;;;;5050610;28;20432;-78
2021/12/24 09:07:33;;;;;;;17.27;8.57;;;9.20;99.90;;;;;;5051642;28;20473;-76
2021/12/24 09:09:59;;;;;;;19.83;9.63;;;9.30;99.90;;;;;;5048060;28;20447;-77
2021/12/24 09:12:25;;;;;;;15.60;8.20;;;9.30;99.90;;;;;;5046147;28;20448;-75
2021/12/24 09:14:53;;;;;;;15.77;7.00;;;9.30;99.90;;;;;;5056850;28;20535;-75
2021/12/24 09:17:20;;;;;;;14.27;6.93;;;9.30;99.90;;;;;;5056164;28;20420;-75
2021/12/24 09:19:49;;;;;;;19.10;7.63;;;9.40;99.90;;;;;;5049277;28;20436;-76
2021/12/24 09:22:18;;;;;;;11.83;6.57;;;9.40;99.70;;;;;;5063747;28;20471;-75
2021/12/24 09:24:46;;;;;;;12.90;6.33;;;9.40;99.40;;;;;;5047455;28;20453;-74
2021/12/24 09:27:13;;;;;;;20.93;8.27;;;9.40;99.30;;;;;;5042991;28;20427;-77
2021/12/24 09:29:39;;;;;;;13.53;6.70;;;9.40;99.20;;;;;;5053449;28;21014;-79
2021/12/24 09:32:06;;;;;;;16.20;7.53;;;9.50;99.10;;;;;;5059255;28;20431;-76
2021/12/24 09:34:31;;;;;;;9.53;5.60;;;9.50;99.30;;;;;;5045356;28;20475;-77
2021/12/24 09:36:57;;;;;;;21.87;7.37;;;9.60;98.70;;;;;;5042625;28;20905;-76
2021/12/24 09:39:23;;;;;;;15.77;7.30;;;9.70;98.40;;;;;;5051626;28;20170;-77
2021/12/24 09:41:49;;;;;;;11.33;7.03;;;9.70;98.20;;;;;;5056395;28;20214;-78
2021/12/24 09:44:14;;;;;;;21.23;8.60;;;9.70;98.30;;;;;;5050820;28;20822;-77
2021/12/24 09:46:42;;;;;;;16.40;6.90;;;9.80;98.30;;;;;;5036340;28;20314;-75
2021/12/24 09:49:13;;;;;;;14.63;7.90;;;9.90;97.80;;;;;;5047217;28;20243;-75
2021/12/24 09:51:45;;;;;;;9.90;6.10;;;9.90;97.70;;;;;;5051121;28;20415;-75
2021/12/24 09:54:15;;;;;;;16.73;8.50;;;9.90;97.30;;;;;;5050878;28;20519;-74
2021/12/24 09:56:42;;;;;;;18.87;8.17;;;9.90;97.20;;;;;;5049660;28;20825;-74
2021/12/24 09:59:08;;;;;;;15.50;8.67;;;9.80;96.80;;;;;;5050455;28;20456;-74
2021/12/24 10:01:43;;;;;;;16.13;7.20;;;9.80;96.90;;;;;;5045213;28;20878;-73
2021/12/24 10:04:14;;;;;;;15.00;8.00;;;9.80;97.00;;;;;;5048966;28;20446;-74
2021/12/24 10:06:56;;;;;;;17.47;7.90;;;9.70;96.70;;;;;;5050196;28;20463;-75
2021/12/24 10:09:32;;;;;;;22.07;7.17;;;9.70;96.70;;;;;;5050248;28;20834;-75
2021/12/24 10:12:02;;;;;;;20.20;6.97;;;9.70;96.70;;;;;;5047645;28;20956;-75
2021/12/24 10:14:37;;;;;;;15.57;7.70;;;9.70;96.90;;;;;;5047807;28;20465;-74
2021/12/24 10:17:04;;;;;;;21.67;11.67;;;9.80;96.70;;;;;;5049597;28;20451;-75
2021/12/24 10:19:43;;;;;;;19.17;7.00;;;9.80;96.50;;;;;;5048797;28;20778;-74
2021/12/24 10:22:10;;;;;;;21.53;8.37;;;9.80;96.50;;;;;;5053880;28;20503;-75
2021/12/24 10:24:35;;;;;;;12.80;6.97;;;9.90;96.60;;;;;;5055159;28;20550;-75
2021/12/24 10:27:01;;;;;;;17.43;7.50;;;9.90;96.40;;;;;;5049964;28;20503;-75
2021/12/24 10:29:37;;;;;;;16.00;6.50;;;10.00;95.60;;;;;;5051596;28;20261;-76
2021/12/24 10:32:15;;;;;;;25.37;11.80;;;10.10;95.30;;;;;;5051286;28;20193;-75
2021/12/24 10:34:43;;;;;;;16.13;8.63;;;10.30;95.40;;;;;;5051764;28;20436;-75
2021/12/24 10:37:23;;;;;;;15.97;7.13;;;10.40;95.00;;;;;;5049605;28;20424;-75
2021/12/24 10:39:57;;;;;;;14.40;6.63;;;10.50;94.70;;;;;;5053704;28;20525;-74
2021/12/24 10:42:32;;;;;;;16.77;7.10;;;10.60;93.80;;;;;;5072287;28;20494;-74
2021/12/24 10:45:00;;;;;;;13.23;6.23;;;10.70;93.80;;;;;;5062779;28;20583;-74
2021/12/24 10:47:27;;;;;;;17.30;7.33;;;10.90;93.50;;;;;;5062008;28;20460;-74
2021/12/24 10:54:57;;;;;;;17.73;6.37;;;11.10;92.80;;;;;;5056150;28;20408;-75
2021/12/24 10:57:29;;;;;;;20.47;6.97;;;11.20;92.60;;;;;;5055091;28;20428;-76
2021/12/24 10:59:57;;;;;;;10.57;5.20;;;11.20;92.10;;;;;;5035435;28;20401;-77
2021/12/24 11:02:36;;;;;;;21.70;5.90;;;11.20;92.10;;;;;;5035141;28;20443;-75
2021/12/24 11:05:04;;;;;;;15.27;6.83;;;11.10;91.60;;;;;;5053037;28;20459;-76
2021/12/24 11:07:31;;;;;;;8.13;5.63;;;11.00;92.00;;;;;;5053621;28;20474;-74
2021/12/24 11:10:12;;;;;;;11.53;6.03;;;10.90;92.20;;;;;;5058081;28;20485;-75
2021/12/24 11:12:43;;;;;;;16.47;6.73;;;10.90;92.70;;;;;;5060325;28;20451;-75
2021/12/24 11:15:26;;;;;;;10.80;6.57;;;10.80;92.30;;;;;;5059921;28;20415;-75
2021/12/24 11:18:16;;;;;;;15.27;6.80;;;10.70;92.40;;;;;;5053391;28;20408;-75
2021/12/24 11:20:43;;;;;;;16.47;6.73;;;10.60;92.80;;;;;;5042901;28;20440;-76
2021/12/24 11:23:17;;;;;;;21.93;6.20;;;10.60;93.00;;;;;;5053634;28;20941;-75
2021/12/24 11:25:55;;;;;;;10.90;6.83;;;10.60;93.00;;;;;;5052487;28;20432;-75
2021/12/24 11:28:25;;;;;;;16.30;9.30;;;10.60;93.30;;;;;;5052853;28;20455;-77
2021/12/24 11:30:54;;;;;;;22.60;7.70;;;10.70;93.20;;;;;;5052693;28;20427;-74
2021/12/24 11:33:23;;;;;;;14.03;5.63;;;10.70;93.30;;;;;;5052206;28;20424;-75
2021/12/24 11:35:50;;;;;;;25.60;6.50;;;10.70;93.40;;;;;;5053572;28;20408;-75
2021/12/24 11:38:22;;;;;;;16.90;6.33;;;10.60;93.20;;;;;;5053658;28;20750;-75
2021/12/24 11:40:49;;;;;;;13.23;6.27;;;10.60;93.30;;;;;;5050473;28;20432;-76
2021/12/24 11:43:18;;;;;;;8.77;5.77;;;10.50;93.20;;;;;;5046059;28;20778;-75
2021/12/24 11:45:47;;;;;;;16.10;6.80;;;10.50;93.50;;;;;;5053107;28;20507;-75
2021/12/24 11:48:13;;;;;;;19.03;9.03;;;10.50;93.50;;;;;;5053324;28;20487;-76
2021/12/24 11:50:40;;;;;;;17.20;7.60;;;10.50;93.50;;;;;;5053385;28;20455;-76
2021/12/24 11:53:08;;;;;;;15.47;6.10;;;10.50;93.50;;;;;;5052314;28;20194;-75
2021/12/24 11:55:49;;;;;;;14.40;5.47;;;10.50;93.40;;;;;;5052763;28;20506;-76
2021/12/24 11:58:25;;;;;;;13.23;6.43;;;10.60;93.40;;;;;;5053307;28;20420;-75
2021/12/24 12:00:56;;;;;;;18.63;6.10;;;10.60;93.10;;;;;;5050651;28;20476;-75
2021/12/24 12:03:32;;;;;;;46.07;27.57;;;10.60;93.40;;;;;;5065812;28;20551;-76
2021/12/24 12:05:58;;;;;;;13.10;6.40;;;10.70;93.20;;;;;;5051336;28;20431;-75
2021/12/24 12:08:30;;;;;;;13.63;4.83;;;10.80;93.00;;;;;;5052078;28;20467;-76
2021/12/24 12:10:57;;;;;;;14.47;4.83;;;10.80;93.10;;;;;;5053448;28;20424;-76
2021/12/24 12:13:42;;;;;;;18.50;6.53;;;10.90;92.60;;;;;;5052803;28;20448;-80
2021/12/24 12:16:17;;;;;;;13.47;6.93;;;11.00;92.40;;;;;;5053630;28;20400;-76
2021/12/24 12:19:06;;;;;;;12.27;5.00;;;11.00;91.80;;;;;;5050488;28;20473;-75
2021/12/24 12:21:37;;;;;;;12.03;4.60;;;11.00;92.00;;;;;;5052394;28;20432;-76
2021/12/24 12:24:57;;;;;;;15.00;5.63;;;11.10;91.90;;;;;;5052518;28;20424;-76
2021/12/24 12:26:53;;;;;;;14.53;5.47;;;11.10;91.60;;;;;;5052700;28;20416;-76
2021/12/24 12:29:28;;;;;;;13.70;5.47;;;11.00;91.70;;;;;;5055461;28;20455;-75
2021/12/24 12:32:12;;;;;;;8.03;4.53;;;11.00;91.60;;;;;;5060283;28;20439;-76
2021/12/24 12:34:38;;;;;;;13.27;5.33;;;10.90;91.60;;;;;;5044370;28;20428;-76
2021/12/24 12:37:17;;;;;;;14.90;5.63;;;10.80;91.50;;;;;;5051368;28;20412;-75
2021/12/24 12:39:45;;;;;;;13.13;5.30;;;10.80;91.90;;;;;;5051308;28;20170;-74
2021/12/24 12:42:13;;;;;;;8.57;5.20;;;10.80;92.00;;;;;;5050571;28;20440;-77
2021/12/24 12:44:45;;;;;;;12.73;5.07;;;10.80;91.80;;;;;;5051717;28;20448;-76
2021/12/24 12:47:24;;;;;;;12.20;4.43;;;10.80;91.80;;;;;;5051374;28;20455;-75
2021/12/24 12:50:10;;;;;;;12.50;5.47;;;10.90;91.90;;;;;;5050865;28;21147;-74
2021/12/24 12:52:36;;;;;;;8.57;5.20;;;10.90;91.70;;;;;;5051979;28;20420;-76
2021/12/24 12:55:03;;;;;;;14.00;6.40;;;10.90;91.50;;;;;;5049507;28;20424;-76
2021/12/24 12:57:35;;;;;;;11.40;5.13;;;10.90;91.50;;;;;;5052018;28;20173;-75
2021/12/24 13:00:19;;;;;;;11.10;5.07;;;10.80;91.60;;;;;;5051862;28;20462;-76
2021/12/24 13:02:58;;;;;;;13.00;5.33;;;10.80;91.70;;;;;;5066613;28;20448;-76
2021/12/24 13:05:26;;;;;;;13.60;6.07;;;10.70;91.70;;;;;;5051638;28;20420;-75
2021/12/24 13:07:55;;;;;;;15.77;4.53;;;10.70;91.80;;;;;;5050491;28;20522;-76
2021/12/24 13:10:21;;;;;;;18.00;6.13;;;10.70;91.70;;;;;;5053431;28;20421;-77
2021/12/24 13:12:46;;;;;;;14.90;7.33;;;10.80;91.80;;;;;;5048742;28;20448;-77
2021/12/24 13:15:16;;;;;;;17.87;5.97;;;10.80;91.80;;;;;;5045537;28;20368;-77
2021/12/24 13:17:46;;;;;;;12.93;4.30;;;10.80;91.80;;;;;;5045670;28;20174;-76
2021/12/24 13:22:58;;;;;;;11.73;5.00;;;10.80;92.00;;;;;;5067057;28;20435;-77
2021/12/24 13:25:24;;;;;;;13.93;5.33;;;10.80;91.60;;;;;;5048334;28;20431;-76
2021/12/24 13:27:52;;;;;;;11.87;5.83;;;10.70;91.70;;;;;;5048598;28;20201;-75
2021/12/24 13:30:21;;;;;;;16.23;9.07;;;10.70;91.80;;;;;;5049494;28;20415;-76
2021/12/24 13:32:51;;;;;;;11.23;6.07;;;10.60;91.80;;;;;;5051686;28;20448;-76
2021/12/24 13:35:24;;;;;;;12.33;6.20;;;10.60;92.00;;;;;;5050735;28;20412;-77
2021/12/24 13:37:54;;;;;;;13.00;4.37;;;10.60;92.00;;;;;;5049968;28;20427;-78
2021/12/24 13:40:26;;;;;;;11.00;5.93;;;10.50;92.00;;;;;;5050575;28;20789;-76
2021/12/24 13:42:55;;;;;;;9.90;5.87;;;10.50;92.10;;;;;;5050725;28;20431;-76
2021/12/24 13:45:22;;;;;;;12.60;5.77;;;10.50;92.30;;;;;;5046191;28;20416;-76
2021/12/24 13:48:06;;;;;;;14.70;5.97;;;10.40;92.40;;;;;;5047802;28;20520;-76
2021/12/24 13:56:00;;;;;;;14.07;5.77;;;10.40;92.60;;;;;;5051855;28;20427;-77
2021/12/24 13:58:26;;;;;;;13.37;5.77;;;10.40;92.70;;;;;;5071049;28;20781;-77
2021/12/24 14:00:57;;;;;;;12.73;5.10;;;10.40;92.80;;;;;;5073341;28;20267;-77
2021/12/24 14:03:29;;;;;;;14.07;5.67;;;10.40;93.10;;;;;;5048271;28;20451;-77
2021/12/24 14:06:00;;;;;;;10.13;5.33;;;10.30;92.80;;;;;;5050244;28;20431;-76
2021/12/24 14:08:32;;;;;;;11.33;5.50;;;10.30;92.80;;;;;;5051688;28;20482;-77
2021/12/24 14:11:21;;;;;;;21.73;7.83;;;10.30;93.00;;;;;;5051405;28;20782;-77
2021/12/24 14:13:55;;;;;;;12.27;6.20;;;10.30;93.10;;;;;;5049326;28;20539;-76
2021/12/24 14:19:27;;;;;;;17.27;6.23;;;10.20;93.10;;;;;;5063315;28;20470;-77
2021/12/24 14:21:53;;;;;;;23.50;9.23;;;10.20;93.30;;;;;;5061764;28;20448;-77
2021/12/24 14:24:20;;;;;;;30.63;15.50;;;10.20;93.40;;;;;;5050639;28;21007;-76
2021/12/24 14:26:55;;;;;;;10.17;5.80;;;10.20;93.50;;;;;;5063138;28;20257;-76
2021/12/24 14:29:42;;;;;;;9.67;4.60;;;10.20;93.60;;;;;;5033563;28;20502;-77
2021/12/24 14:32:09;;;;;;;11.43;6.00;;;10.20;93.60;;;;;;5034595;28;20421;-76
2021/12/24 14:34:40;;;;;;;10.37;5.40;;;10.10;93.60;;;;;;5078178;22;21007;-73
2021/12/24 14:37:09;;;;;;;12.47;5.93;;;10.10;93.60;;;;;;5071736;28;20473;-74
2021/12/24 14:39:42;;;;;;;18.00;5.97;;;10.10;93.70;;;;;;5074099;28;20626;-74
2021/12/24 14:42:16;;;;;;;10.10;5.43;;;10.10;93.80;;;;;;5055699;28;20837;-73
2021/12/24 14:44:43;;;;;;;17.03;6.50;;;10.10;93.80;;;;;;5058244;28;20434;-73
2021/12/24 14:47:11;;;;;;;19.17;7.53;;;10.10;93.80;;;;;;5053286;28;20932;-71